Terminal Aerodrome Forecast
Issued by NWS

Home | Current Version | Previous Version | Text Only | Print | Product List | Glossary On
Versions: 1 2 3 4 5 6 7 8 9 10 11 12 13 14 15 16 17 18 19 20 21 22 23 24 25 26 27 28
000
FTUS44 KEWX 301130
TAFSSF
TAF
KSSF 301130Z 3012/3112 03003KT P6SM BKN007
     FM301225 35015G25KT 5SM -SHRA BR SCT008 BKN035
     FM301330 35005KT P6SM VCSH SCT015 BKN035
     FM301600 VRB03KT P6SM VCSH FEW015 SCT035 BKN080
      TEMPO 3020/3024 TSRA BKN035CB
     FM310300 05006KT P6SM VCSH BKN028=

USA.gov is the U.S. government's official web portal to all federal, state and local government web resources and services.